Fort Davis, TX

9:27 PM CDT on September 01, 2015 (GMT -0500)
FA Ranch Limpia Crossing | | Change Station
CLOSE
Current Station
Personal Weather Station
Location: Fort Davis, TX
Elevation: 5262 ft
Nearby Weather Stations

Elev 5262 ft 30.62 °N, 103.97 °W | Updated 16 minutes ago

Clear
Clear
78.6 °F
Feels Like 79 °F
N
14.0
Wind Variable Wind from East

Today
High -- | Low -- °F
--% Chance of Precip.
Yesterday
High -- | Low -- °F
Precip. -- in
7:31 AM 8:18 PM
Waning Gibbous, 84% visible
Pressure 30.14 in
Visibility 10.0 miles
Clouds Clear
Heat Index 79 °F
Dew Point 51 °F
Humidity 38%
Rainfall 0.00 in
Snow Depth Not available.
UV 0 out of 12
Pollen 9.80 out of 12
Air Quality Not available.
Flu Activity Not available.
METAR KMRF 020215Z AUTO 10009KT 10SM CLR 23/07 A3014 RMK AO1
Pressure 30.14 in
Visibility 10.0 miles
Clouds Clear
Heat Index 79 °F
Dew Point 51 °F
Humidity 38%
Rainfall 0.00 in
Snow Depth Not available.
UV 0 out of 12
Pollen 9.80 out of 12
Air Quality Not available.
Flu Activity Not available.
METAR KMRF 020215Z AUTO 10009KT 10SM CLR 23/07 A3014 RMK AO1

10-Day Weather Forecast

×

Almanac

Astronomy

Sep. 01, 2015 Rise Set
Actual Time
Civil Twilight
Nautical Twilight
Astronomical Twilight
Moon
Length of Visible Light
Length of Day
Tomorrow will be .
, % of the Moon is Illuminated

Today's Extremes

State Highs State Lows

Community

WunderPhotos

Upload Photos

1,851,679 photos uploaded!

WunderBlogs® & News

Nearby

Air Quality

  Air Quality AQ Index Pollutant
Not available.

Snow Depth

Station Depth Elevation

Earthquake Activity

City Distance Mag. Time & Date
Minimum magnitude displayed is 2.5.

Coastal Water Temperatures

Place Temperature

Stations

Nearby Weather Stations

Station Location Temp. Windchill Dew Point Humidity Wind Precip. Elev Updated Type